sensor_id;sensor_type;location;lat;lon;timestamp;pressure;altitude;pressure_sealevel;temperature;humidity
19553;BME280;9420;50.876;7.012;2023-05-23T00:01:49;101211.75;;;29.84;60.24
19553;BME280;9420;50.876;7.012;2023-05-23T00:04:19;101205.84;;;29.89;60.28
19553;BME280;9420;50.876;7.012;2023-05-23T00:06:46;101206.19;;;31.04;57.81
19553;BME280;9420;50.876;7.012;2023-05-23T00:09:16;101212.34;;;28.71;62.53
19553;BME280;9420;50.876;7.012;2023-05-23T00:11:43;101216.09;;;31.13;58.14
19553;BME280;9420;50.876;7.012;2023-05-23T00:14:11;101224.59;;;29.64;59.39
19553;BME280;9420;50.876;7.012;2023-05-23T00:16:39;101207.72;;;30.65;59.28
19553;BME280;9420;50.876;7.012;2023-05-23T00:19:08;101213.66;;;31.02;57.15
19553;BME280;9420;50.876;7.012;2023-05-23T00:21:35;101208.56;;;29.53;60.39
19553;BME280;9420;50.876;7.012;2023-05-23T00:24:03;101213.34;;;31.05;57.76
19553;BME280;9420;50.876;7.012;2023-05-23T00:26:32;101221.22;;;30.49;58.83
19553;BME280;9420;50.876;7.012;2023-05-23T00:28:59;101220.03;;;29.65;60.16
19553;BME280;9420;50.876;7.012;2023-05-23T00:31:26;101207.44;;;30.25;59.01
19553;BME280;9420;50.876;7.012;2023-05-23T00:33:53;101210.41;;;30.57;58.27
19553;BME280;9420;50.876;7.012;2023-05-23T00:36:19;101213.00;;;30.15;58.90
19553;BME280;9420;50.876;7.012;2023-05-23T00:38:47;101220.47;;;30.13;59.09
19553;BME280;9420;50.876;7.012;2023-05-23T00:41:14;101202.88;;;32.63;54.87
19553;BME280;9420;50.876;7.012;2023-05-23T00:43:44;101217.25;;;29.74;59.30
19553;BME280;9420;50.876;7.012;2023-05-23T00:46:11;101224.38;;;28.59;62.00
19553;BME280;9420;50.876;7.012;2023-05-23T00:48:39;101222.91;;;29.28;62.23
19553;BME280;9420;50.876;7.012;2023-05-23T00:51:06;101218.56;;;30.06;59.65
19553;BME280;9420;50.876;7.012;2023-05-23T00:53:34;101222.28;;;29.69;58.97
19553;BME280;9420;50.876;7.012;2023-05-23T00:56:02;101223.28;;;29.06;60.89
19553;BME280;9420;50.876;7.012;2023-05-23T00:58:29;101219.72;;;30.29;59.02
19553;BME280;9420;50.876;7.012;2023-05-23T01:00:58;101223.75;;;30.76;56.92
19553;BME280;9420;50.876;7.012;2023-05-23T01:03:25;101227.25;;;29.92;59.07
19553;BME280;9420;50.876;7.012;2023-05-23T01:05:54;101228.63;;;29.60;61.98
19553;BME280;9420;50.876;7.012;2023-05-23T01:08:22;101232.81;;;29.72;60.14
19553;BME280;9420;50.876;7.012;2023-05-23T01:10:49;101233.38;;;29.94;58.92
19553;BME280;9420;50.876;7.012;2023-05-23T01:13:23;101223.88;;;30.15;58.64
19553;BME280;9420;50.876;7.012;2023-05-23T01:16:06;101224.16;;;29.51;60.21
19553;BME280;9420;50.876;7.012;2023-05-23T01:18:39;101239.53;;;28.33;62.58
19553;BME280;9420;50.876;7.012;2023-05-23T01:21:14;101234.94;;;30.22;58.98
19553;BME280;9420;50.876;7.012;2023-05-23T01:24:13;101229.19;;;31.10;56.79
19553;BME280;9420;50.876;7.012;2023-05-23T01:27:00;101226.38;;;30.09;57.44
19553;BME280;9420;50.876;7.012;2023-05-23T01:29:37;101227.47;;;31.59;56.81
19553;BME280;9420;50.876;7.012;2023-05-23T01:32:10;101224.53;;;30.94;55.73
19553;BME280;9420;50.876;7.012;2023-05-23T01:34:40;101234.03;;;30.31;57.07
19553;BME280;9420;50.876;7.012;2023-05-23T01:37:08;101243.41;;;28.76;59.24
19553;BME280;9420;50.876;7.012;2023-05-23T01:39:35;101222.34;;;30.98;56.82
19553;BME280;9420;50.876;7.012;2023-05-23T01:42:03;101220.25;;;30.07;56.55
19553;BME280;9420;50.876;7.012;2023-05-23T01:44:34;101220.34;;;30.74;56.60
19553;BME280;9420;50.876;7.012;2023-05-23T01:47:03;101237.53;;;29.18;60.74
19553;BME280;9420;50.876;7.012;2023-05-23T01:49:33;101222.19;;;30.40;57.77
19553;BME280;9420;50.876;7.012;2023-05-23T01:52:01;101242.97;;;29.70;59.76
19553;BME280;9420;50.876;7.012;2023-05-23T01:54:29;101237.44;;;31.42;56.25
19553;BME280;9420;50.876;7.012;2023-05-23T01:56:59;101245.88;;;29.24;59.66
19553;BME280;9420;50.876;7.012;2023-05-23T01:59:27;101243.28;;;29.05;61.66
19553;BME280;9420;50.876;7.012;2023-05-23T02:01:55;101249.00;;;29.02;62.57
19553;BME280;9420;50.876;7.012;2023-05-23T02:04:22;101241.19;;;31.41;57.87
19553;BME280;9420;50.876;7.012;2023-05-23T02:06:49;101243.50;;;30.52;57.50
19553;BME280;9420;50.876;7.012;2023-05-23T02:09:16;101268.34;;;29.17;59.49
19553;BME280;9420;50.876;7.012;2023-05-23T02:11:43;101248.03;;;29.65;61.41
19553;BME280;9420;50.876;7.012;2023-05-23T02:14:10;101260.59;;;28.58;61.33
19553;BME280;9420;50.876;7.012;2023-05-23T02:16:37;101272.59;;;28.46;61.14
19553;BME280;9420;50.876;7.012;2023-05-23T02:19:05;101271.84;;;28.63;60.70
19553;BME280;9420;50.876;7.012;2023-05-23T02:21:32;101259.47;;;28.87;60.23
19553;BME280;9420;50.876;7.012;2023-05-23T02:23:59;101259.50;;;30.30;57.16
19553;BME280;9420;50.876;7.012;2023-05-23T02:26:26;101272.44;;;29.48;58.50
19553;BME280;9420;50.876;7.012;2023-05-23T02:28:53;101268.22;;;29.80;56.92
19553;BME280;9420;50.876;7.012;2023-05-23T02:31:20;101276.66;;;29.05;57.82
19553;BME280;9420;50.876;7.012;2023-05-23T02:33:48;101274.16;;;30.96;54.54
19553;BME280;9420;50.876;7.012;2023-05-23T02:36:16;101270.50;;;31.13;53.88
19553;BME280;9420;50.876;7.012;2023-05-23T02:38:43;101279.09;;;30.67;54.49
19553;BME280;9420;50.876;7.012;2023-05-23T02:41:10;101274.81;;;30.90;54.20
19553;BME280;9420;50.876;7.012;2023-05-23T02:43:37;101276.09;;;29.56;56.03
19553;BME280;9420;50.876;7.012;2023-05-23T02:46:04;101290.75;;;29.19;56.18
19553;BME280;9420;50.876;7.012;2023-05-23T02:48:31;101280.59;;;30.87;54.14
19553;BME280;9420;50.876;7.012;2023-05-23T02:50:58;101275.06;;;31.05;54.61
19553;BME280;9420;50.876;7.012;2023-05-23T02:53:26;101273.69;;;31.51;54.56
19553;BME280;9420;50.876;7.012;2023-05-23T02:55:53;101281.44;;;29.48;56.19
19553;BME280;9420;50.876;7.012;2023-05-23T02:58:20;101270.25;;;30.65;53.58
19553;BME280;9420;50.876;7.012;2023-05-23T03:00:47;101278.25;;;29.53;56.17
19553;BME280;9420;50.876;7.012;2023-05-23T03:03:14;101277.53;;;29.33;58.16
19553;BME280;9420;50.876;7.012;2023-05-23T03:05:42;101277.25;;;29.71;56.54
19553;BME280;9420;50.876;7.012;2023-05-23T03:08:09;101280.41;;;29.49;56.99
19553;BME280;9420;50.876;7.012;2023-05-23T03:10:37;101285.34;;;28.82;58.36
19553;BME280;9420;50.876;7.012;2023-05-23T03:13:04;101266.97;;;29.93;56.98
19553;BME280;9420;50.876;7.012;2023-05-23T03:15:31;101265.13;;;29.75;57.21
19553;BME280;9420;50.876;7.012;2023-05-23T03:17:58;101282.56;;;28.55;59.75
19553;BME280;9420;50.876;7.012;2023-05-23T03:20:25;101274.19;;;29.39;57.29
19553;BME280;9420;50.876;7.012;2023-05-23T03:22:52;101276.06;;;30.01;56.65
19553;BME280;9420;50.876;7.012;2023-05-23T03:25:19;101287.69;;;29.31;58.11
19553;BME280;9420;50.876;7.012;2023-05-23T03:27:47;101295.72;;;28.30;60.13
19553;BME280;9420;50.876;7.012;2023-05-23T03:30:14;101300.38;;;28.48;60.02
19553;BME280;9420;50.876;7.012;2023-05-23T03:32:41;101299.44;;;28.29;62.37
19553;BME280;9420;50.876;7.012;2023-05-23T03:35:09;101294.00;;;29.22;60.07
19553;BME280;9420;50.876;7.012;2023-05-23T03:37:36;101297.81;;;29.02;59.45
19553;BME280;9420;50.876;7.012;2023-05-23T03:40:04;101310.31;;;29.13;58.35
19553;BME280;9420;50.876;7.012;2023-05-23T03:42:32;101305.22;;;29.00;59.59
19553;BME280;9420;50.876;7.012;2023-05-23T03:45:17;101299.88;;;28.90;62.07
19553;BME280;9420;50.876;7.012;2023-05-23T03:48:02;101296.16;;;29.46;60.42
19553;BME280;9420;50.876;7.012;2023-05-23T03:50:47;101295.59;;;28.22;65.89
19553;BME280;9420;50.876;7.012;2023-05-23T03:53:14;101307.06;;;27.48;68.80
19553;BME280;9420;50.876;7.012;2023-05-23T03:55:41;101300.25;;;27.44;69.40
19553;BME280;9420;50.876;7.012;2023-05-23T03:58:08;101301.91;;;29.43;64.15
19553;BME280;9420;50.876;7.012;2023-05-23T04:00:37;101301.00;;;31.75;58.04
19553;BME280;9420;50.876;7.012;2023-05-23T04:03:04;101295.34;;;30.59;61.16
19553;BME280;9420;50.876;7.012;2023-05-23T04:05:33;101314.28;;;28.06;64.39
19553;BME280;9420;50.876;7.012;2023-05-23T04:08:00;101308.69;;;28.17;64.33
19553;BME280;9420;50.876;7.012;2023-05-23T04:10:27;101310.28;;;29.22;66.12
19553;BME280;9420;50.876;7.012;2023-05-23T04:12:54;101312.91;;;28.68;65.20
19553;BME280;9420;50.876;7.012;2023-05-23T04:15:21;101313.94;;;27.90;64.74
19553;BME280;9420;50.876;7.012;2023-05-23T04:17:49;101320.47;;;27.59;68.49
19553;BME280;9420;50.876;7.012;2023-05-23T04:20:17;101309.03;;;29.44;63.41
19553;BME280;9420;50.876;7.012;2023-05-23T04:22:44;101316.59;;;29.13;62.78
19553;BME280;9420;50.876;7.012;2023-05-23T04:25:11;101332.22;;;27.09;66.21
19553;BME280;9420;50.876;7.012;2023-05-23T04:27:38;101322.81;;;28.21;65.60
19553;BME280;9420;50.876;7.012;2023-05-23T04:30:07;101324.78;;;28.28;67.01
19553;BME280;9420;50.876;7.012;2023-05-23T04:32:34;101323.69;;;28.21;63.47
19553;BME280;9420;50.876;7.012;2023-05-23T04:35:05;101338.03;;;29.88;59.90
19553;BME280;9420;50.876;7.012;2023-05-23T04:37:32;101333.69;;;29.23;61.47
19553;BME280;9420;50.876;7.012;2023-05-23T04:39:59;101331.03;;;28.39;63.42
19553;BME280;9420;50.876;7.012;2023-05-23T04:42:26;101332.28;;;29.19;59.79
19553;BME280;9420;50.876;7.012;2023-05-23T04:44:54;101324.59;;;30.39;58.68
19553;BME280;9420;50.876;7.012;2023-05-23T04:47:23;101333.78;;;30.03;58.53
19553;BME280;9420;50.876;7.012;2023-05-23T04:49:53;101339.50;;;29.01;59.75
19553;BME280;9420;50.876;7.012;2023-05-23T04:52:23;101328.44;;;29.12;59.75
19553;BME280;9420;50.876;7.012;2023-05-23T04:54:52;101337.00;;;28.71;61.08
19553;BME280;9420;50.876;7.012;2023-05-23T04:57:19;101334.56;;;30.31;58.02
19553;BME280;9420;50.876;7.012;2023-05-23T04:59:46;101339.03;;;28.40;60.27
19553;BME280;9420;50.876;7.012;2023-05-23T05:02:13;101339.50;;;30.00;58.79
19553;BME280;9420;50.876;7.012;2023-05-23T05:04:40;101337.72;;;29.73;57.31
19553;BME280;9420;50.876;7.012;2023-05-23T05:07:07;101345.75;;;27.98;62.19
19553;BME280;9420;50.876;7.012;2023-05-23T05:09:35;101347.69;;;29.28;60.04
19553;BME280;9420;50.876;7.012;2023-05-23T05:12:03;101347.84;;;28.52;62.18
19553;BME280;9420;50.876;7.012;2023-05-23T05:14:30;101354.56;;;29.13;61.61
19553;BME280;9420;50.876;7.012;2023-05-23T05:16:56;101355.41;;;29.23;60.25
19553;BME280;9420;50.876;7.012;2023-05-23T05:19:24;101354.63;;;30.03;60.33
19553;BME280;9420;50.876;7.012;2023-05-23T05:21:51;101352.63;;;30.05;59.97
19553;BME280;9420;50.876;7.012;2023-05-23T05:24:18;101358.69;;;29.71;59.72
19553;BME280;9420;50.876;7.012;2023-05-23T05:26:47;101355.56;;;29.94;59.99
19553;BME280;9420;50.876;7.012;2023-05-23T05:29:14;101360.06;;;30.03;59.57
19553;BME280;9420;50.876;7.012;2023-05-23T05:31:41;101360.13;;;28.46;62.19
19553;BME280;9420;50.876;7.012;2023-05-23T05:34:10;101355.75;;;31.64;55.70
19553;BME280;9420;50.876;7.012;2023-05-23T05:36:37;101358.53;;;29.83;58.45
19553;BME280;9420;50.876;7.012;2023-05-23T05:39:10;101361.25;;;29.83;59.38
19553;BME280;9420;50.876;7.012;2023-05-23T05:41:37;101358.50;;;31.38;55.29
19553;BME280;9420;50.876;7.012;2023-05-23T05:44:07;101374.50;;;30.56;59.04
19553;BME280;9420;50.876;7.012;2023-05-23T05:46:34;101356.84;;;31.03;57.07
19553;BME280;9420;50.876;7.012;2023-05-23T05:49:01;101370.31;;;29.37;60.13
19553;BME280;9420;50.876;7.012;2023-05-23T05:51:28;101363.13;;;30.60;56.33
19553;BME280;9420;50.876;7.012;2023-05-23T05:53:56;101366.06;;;28.88;59.21
19553;BME280;9420;50.876;7.012;2023-05-23T05:56:28;101371.22;;;28.72;61.54
19553;BME280;9420;50.876;7.012;2023-05-23T05:58:56;101361.47;;;30.42;58.68
19553;BME280;9420;50.876;7.012;2023-05-23T06:01:36;101374.81;;;31.30;55.42
19553;BME280;9420;50.876;7.012;2023-05-23T06:04:41;101377.63;;;31.12;55.33
19553;BME280;9420;50.876;7.012;2023-05-23T06:07:08;101386.00;;;30.50;56.34
19553;BME280;9420;50.876;7.012;2023-05-23T06:09:35;101379.88;;;30.91;55.29
19553;BME280;9420;50.876;7.012;2023-05-23T06:12:02;101380.28;;;31.04;55.77
19553;BME280;9420;50.876;7.012;2023-05-23T06:14:29;101390.19;;;30.62;56.36
19553;BME280;9420;50.876;7.012;2023-05-23T06:16:56;101395.53;;;30.01;57.37
19553;BME280;9420;50.876;7.012;2023-05-23T06:19:23;101385.97;;;29.79;58.34
19553;BME280;9420;50.876;7.012;2023-05-23T06:21:52;101403.78;;;28.62;60.45
19553;BME280;9420;50.876;7.012;2023-05-23T06:24:19;101392.59;;;28.94;59.89
19553;BME280;9420;50.876;7.012;2023-05-23T06:26:46;101391.72;;;29.03;61.79
19553;BME280;9420;50.876;7.012;2023-05-23T06:29:13;101397.84;;;29.42;59.85
19553;BME280;9420;50.876;7.012;2023-05-23T06:31:40;101394.97;;;29.70;59.43
19553;BME280;9420;50.876;7.012;2023-05-23T06:34:07;101394.78;;;29.27;59.22
19553;BME280;9420;50.876;7.012;2023-05-23T06:36:34;101394.94;;;29.26;59.56
19553;BME280;9420;50.876;7.012;2023-05-23T06:39:03;101390.13;;;30.97;56.25
19553;BME280;9420;50.876;7.012;2023-05-23T06:41:30;101396.53;;;29.55;57.77
19553;BME280;9420;50.876;7.012;2023-05-23T06:43:57;101393.13;;;29.07;60.44
19553;BME280;9420;50.876;7.012;2023-05-23T06:46:24;101399.19;;;28.44;60.44
19553;BME280;9420;50.876;7.012;2023-05-23T06:48:51;101408.34;;;28.62;62.39
19553;BME280;9420;50.876;7.012;2023-05-23T06:51:18;101410.31;;;27.23;63.02
19553;BME280;9420;50.876;7.012;2023-05-23T06:53:45;101414.16;;;28.00;63.88
19553;BME280;9420;50.876;7.012;2023-05-23T06:56:13;101407.56;;;29.71;63.25
19553;BME280;9420;50.876;7.012;2023-05-23T06:58:40;101406.22;;;30.91;58.36
19553;BME280;9420;50.876;7.012;2023-05-23T07:01:07;101426.81;;;27.99;63.96
19553;BME280;9420;50.876;7.012;2023-05-23T07:03:35;101416.09;;;29.49;62.44
19553;BME280;9420;50.876;7.012;2023-05-23T07:06:03;101419.75;;;27.08;68.11
19553;BME280;9420;50.876;7.012;2023-05-23T07:08:30;101426.25;;;28.05;65.80
19553;BME280;9420;50.876;7.012;2023-05-23T07:10:57;101423.19;;;29.60;63.77
19553;BME280;9420;50.876;7.012;2023-05-23T07:13:25;101430.22;;;27.92;64.41
19553;BME280;9420;50.876;7.012;2023-05-23T07:15:52;101421.44;;;28.38;65.05
19553;BME280;9420;50.876;7.012;2023-05-23T07:18:19;101425.81;;;29.15;61.92
19553;BME280;9420;50.876;7.012;2023-05-23T07:20:47;101432.84;;;28.32;62.92
19553;BME280;9420;50.876;7.012;2023-05-23T07:23:14;101432.28;;;28.38;63.39
19553;BME280;9420;50.876;7.012;2023-05-23T07:25:42;101437.09;;;30.29;57.74
19553;BME280;9420;50.876;7.012;2023-05-23T07:28:09;101430.66;;;30.30;56.26
19553;BME280;9420;50.876;7.012;2023-05-23T07:30:37;101431.09;;;30.60;56.38
19553;BME280;9420;50.876;7.012;2023-05-23T07:33:04;101438.81;;;30.30;56.19
19553;BME280;9420;50.876;7.012;2023-05-23T07:35:31;101448.41;;;27.80;61.30
19553;BME280;9420;50.876;7.012;2023-05-23T07:37:58;101438.38;;;29.53;58.48
19553;BME280;9420;50.876;7.012;2023-05-23T07:40:25;101443.34;;;29.11;61.47
19553;BME280;9420;50.876;7.012;2023-05-23T07:42:52;101436.72;;;29.69;57.49
19553;BME280;9420;50.876;7.012;2023-05-23T07:45:20;101447.81;;;28.93;62.61
19553;BME280;9420;50.876;7.012;2023-05-23T07:47:49;101433.44;;;29.75;60.06
19553;BME280;9420;50.876;7.012;2023-05-23T07:50:16;101445.44;;;30.18;57.56
19553;BME280;9420;50.876;7.012;2023-05-23T07:52:43;101441.00;;;28.79;59.57
19553;BME280;9420;50.876;7.012;2023-05-23T07:55:10;101444.84;;;30.24;57.78
19553;BME280;9420;50.876;7.012;2023-05-23T07:57:37;101458.00;;;30.01;58.54
19553;BME280;9420;50.876;7.012;2023-05-23T08:00:06;101452.28;;;30.92;56.21
19553;BME280;9420;50.876;7.012;2023-05-23T08:02:34;101452.53;;;30.28;57.37
19553;BME280;9420;50.876;7.012;2023-05-23T08:05:03;101456.59;;;30.42;56.71
19553;BME280;9420;50.876;7.012;2023-05-23T08:07:30;101456.19;;;30.72;56.76
19553;BME280;9420;50.876;7.012;2023-05-23T08:09:57;101455.50;;;31.13;55.55
19553;BME280;9420;50.876;7.012;2023-05-23T08:12:24;101468.56;;;29.77;57.12
19553;BME280;9420;50.876;7.012;2023-05-23T08:14:51;101452.03;;;32.54;53.90
19553;BME280;9420;50.876;7.012;2023-05-23T08:17:18;101458.53;;;30.32;56.90
19553;BME280;9420;50.876;7.012;2023-05-23T08:19:45;101478.19;;;28.29;61.30
19553;BME280;9420;50.876;7.012;2023-05-23T08:22:14;101475.97;;;29.85;58.68
19553;BME280;9420;50.876;7.012;2023-05-23T08:24:41;101475.34;;;29.17;61.79
19553;BME280;9420;50.876;7.012;2023-05-23T08:27:08;101476.75;;;29.21;59.86
19553;BME280;9420;50.876;7.012;2023-05-23T08:29:35;101477.88;;;29.28;59.18
19553;BME280;9420;50.876;7.012;2023-05-23T08:32:03;101486.16;;;28.41;61.66
19553;BME280;9420;50.876;7.012;2023-05-23T08:34:30;101491.28;;;28.24;61.06
19553;BME280;9420;50.876;7.012;2023-05-23T08:36:57;101486.94;;;28.03;61.80
19553;BME280;9420;50.876;7.012;2023-05-23T08:39:26;101486.22;;;28.69;61.65
19553;BME280;9420;50.876;7.012;2023-05-23T08:41:53;101485.06;;;28.81;60.65
19553;BME280;9420;50.876;7.012;2023-05-23T08:44:20;101485.59;;;29.23;60.56
19553;BME280;9420;50.876;7.012;2023-05-23T08:46:49;101489.00;;;28.10;61.78
19553;BME280;9420;50.876;7.012;2023-05-23T08:49:21;101492.66;;;28.09;62.11
19553;BME280;9420;50.876;7.012;2023-05-23T08:51:54;101489.34;;;28.84;60.56
19553;BME280;9420;50.876;7.012;2023-05-23T08:54:24;101494.63;;;28.66;60.54
19553;BME280;9420;50.876;7.012;2023-05-23T08:56:54;101496.72;;;28.44;61.11
19553;BME280;9420;50.876;7.012;2023-05-23T08:59:21;101502.75;;;28.85;61.09
19553;BME280;9420;50.876;7.012;2023-05-23T09:01:50;101505.31;;;28.49;61.60
19553;BME280;9420;50.876;7.012;2023-05-23T09:04:19;101513.31;;;28.60;61.30
19553;BME280;9420;50.876;7.012;2023-05-23T09:06:46;101510.97;;;27.57;64.53
19553;BME280;9420;50.876;7.012;2023-05-23T09:09:13;101514.84;;;29.29;61.77
19553;BME280;9420;50.876;7.012;2023-05-23T09:11:41;101523.75;;;27.34;64.62
19553;BME280;9420;50.876;7.012;2023-05-23T09:14:10;101517.09;;;29.43;62.32
19553;BME280;9420;50.876;7.012;2023-05-23T09:16:39;101529.69;;;29.06;61.34
19553;BME280;9420;50.876;7.012;2023-05-23T09:19:13;101523.25;;;28.50;61.89
19553;BME280;9420;50.876;7.012;2023-05-23T09:21:42;101520.59;;;28.88;61.89
19553;BME280;9420;50.876;7.012;2023-05-23T09:24:10;101526.16;;;28.77;63.00
19553;BME280;9420;50.876;7.012;2023-05-23T09:26:37;101536.91;;;27.18;63.68
19553;BME280;9420;50.876;7.012;2023-05-23T09:29:06;101536.09;;;26.86;66.75
19553;BME280;9420;50.876;7.012;2023-05-23T09:31:33;101530.72;;;28.67;63.03
19553;BME280;9420;50.876;7.012;2023-05-23T09:34:00;101539.22;;;28.34;63.01
19553;BME280;9420;50.876;7.012;2023-05-23T09:36:30;101539.56;;;28.00;63.46
19553;BME280;9420;50.876;7.012;2023-05-23T09:39:02;101532.69;;;29.13;60.98
19553;BME280;9420;50.876;7.012;2023-05-23T09:41:32;101543.56;;;29.03;60.44
19553;BME280;9420;50.876;7.012;2023-05-23T09:44:07;101540.78;;;27.66;63.66
19553;BME280;9420;50.876;7.012;2023-05-23T09:46:36;101540.78;;;27.66;63.88
19553;BME280;9420;50.876;7.012;2023-05-23T09:49:14;101533.56;;;29.32;60.79
19553;BME280;9420;50.876;7.012;2023-05-23T09:51:42;101529.56;;;29.83;59.89
19553;BME280;9420;50.876;7.012;2023-05-23T09:54:09;101548.63;;;28.29;63.14
19553;BME280;9420;50.876;7.012;2023-05-23T09:56:39;101546.56;;;27.52;62.39
19553;BME280;9420;50.876;7.012;2023-05-23T09:59:12;101545.34;;;29.50;58.56
19553;BME280;9420;50.876;7.012;2023-05-23T10:01:43;101552.59;;;28.25;59.54
19553;BME280;9420;50.876;7.012;2023-05-23T10:04:15;101547.53;;;29.37;58.45
19553;BME280;9420;50.876;7.012;2023-05-23T10:06:52;101543.75;;;30.04;56.87
19553;BME280;9420;50.876;7.012;2023-05-23T10:09:22;101558.38;;;29.47;56.32
19553;BME280;9420;50.876;7.012;2023-05-23T10:12:43;101563.38;;;28.75;58.01
19553;BME280;9420;50.876;7.012;2023-05-23T10:15:15;101565.13;;;28.76;58.65
19553;BME280;9420;50.876;7.012;2023-05-23T10:18:10;101561.09;;;30.92;54.14
19553;BME280;9420;50.876;7.012;2023-05-23T10:20:42;101559.94;;;29.96;55.35
19553;BME280;9420;50.876;7.012;2023-05-23T10:23:12;101569.34;;;28.00;57.61
19553;BME280;9420;50.876;7.012;2023-05-23T10:25:39;101562.47;;;30.07;55.71
19553;BME280;9420;50.876;7.012;2023-05-23T10:28:08;101566.41;;;29.00;56.16
19553;BME280;9420;50.876;7.012;2023-05-23T10:30:38;101568.53;;;30.90;53.95
19553;BME280;9420;50.876;7.012;2023-05-23T10:33:06;101560.97;;;30.22;54.64
19553;BME280;9420;50.876;7.012;2023-05-23T10:35:46;101566.66;;;28.78;57.41
19553;BME280;9420;50.876;7.012;2023-05-23T10:38:29;101568.91;;;27.84;57.88
19553;BME280;9420;50.876;7.012;2023-05-23T10:41:06;101568.97;;;27.94;59.92
19553;BME280;9420;50.876;7.012;2023-05-23T10:43:44;101572.00;;;30.65;54.16
19553;BME280;9420;50.876;7.012;2023-05-23T10:46:14;101570.25;;;29.92;55.00
19553;BME280;9420;50.876;7.012;2023-05-23T10:48:43;101581.47;;;29.60;55.86
19553;BME280;9420;50.876;7.012;2023-05-23T10:51:11;101569.63;;;30.08;53.72
19553;BME280;9420;50.876;7.012;2023-05-23T10:53:41;101589.34;;;31.34;52.43
19553;BME280;9420;50.876;7.012;2023-05-23T10:56:18;101591.81;;;29.94;53.74
19553;BME280;9420;50.876;7.012;2023-05-23T10:58:51;101597.69;;;28.46;55.74
19553;BME280;9420;50.876;7.012;2023-05-23T11:01:20;101593.97;;;29.34;54.41
19553;BME280;9420;50.876;7.012;2023-05-23T11:03:51;101586.88;;;29.60;54.53
19553;BME280;9420;50.876;7.012;2023-05-23T11:06:30;101590.91;;;31.19;53.05
19553;BME280;9420;50.876;7.012;2023-05-23T11:09:03;101597.16;;;29.66;54.22
19553;BME280;9420;50.876;7.012;2023-05-23T11:11:51;101608.81;;;27.82;57.33
19553;BME280;9420;50.876;7.012;2023-05-23T11:14:19;101596.25;;;29.95;54.15
19553;BME280;9420;50.876;7.012;2023-05-23T11:16:48;101612.34;;;29.02;54.94
19553;BME280;9420;50.876;7.012;2023-05-23T11:19:23;101603.97;;;31.33;49.91
19553;BME280;9420;50.876;7.012;2023-05-23T11:21:57;101607.38;;;31.00;51.12
19553;BME280;9420;50.876;7.012;2023-05-23T11:24:48;101618.59;;;30.52;51.07
19553;BME280;9420;50.876;7.012;2023-05-23T11:27:17;101620.28;;;30.98;51.01
19553;BME280;9420;50.876;7.012;2023-05-23T11:29:57;101625.63;;;30.09;53.00
19553;BME280;9420;50.876;7.012;2023-05-23T11:32:27;101625.09;;;31.04;50.16
19553;BME280;9420;50.876;7.012;2023-05-23T11:34:58;101638.31;;;27.85;54.18
19553;BME280;9420;50.876;7.012;2023-05-23T11:37:27;101626.88;;;28.63;54.95
19553;BME280;9420;50.876;7.012;2023-05-23T11:39:54;101647.28;;;27.65;55.19
19553;BME280;9420;50.876;7.012;2023-05-23T11:42:22;101630.75;;;28.40;54.10
19553;BME280;9420;50.876;7.012;2023-05-23T11:44:49;101629.88;;;28.29;54.97
19553;BME280;9420;50.876;7.012;2023-05-23T11:47:17;101645.72;;;28.74;53.30
19553;BME280;9420;50.876;7.012;2023-05-23T11:49:46;101640.38;;;27.20;55.01
19553;BME280;9420;50.876;7.012;2023-05-23T11:52:14;101646.16;;;28.98;50.98
19553;BME280;9420;50.876;7.012;2023-05-23T11:54:42;101636.03;;;28.90;52.02
19553;BME280;9420;50.876;7.012;2023-05-23T11:57:09;101627.06;;;30.67;49.51
19553;BME280;9420;50.876;7.012;2023-05-23T11:59:37;101629.81;;;30.40;49.83
19553;BME280;9420;50.876;7.012;2023-05-23T12:02:05;101635.38;;;31.28;48.17
19553;BME280;9420;50.876;7.012;2023-05-23T12:04:34;101631.78;;;30.92;48.07
19553;BME280;9420;50.876;7.012;2023-05-23T12:07:05;101630.25;;;31.43;46.77
19553;BME280;9420;50.876;7.012;2023-05-23T12:09:41;101633.16;;;28.73;50.15
19553;BME280;9420;50.876;7.012;2023-05-23T12:12:09;101624.09;;;31.84;46.71
19553;BME280;9420;50.876;7.012;2023-05-23T12:14:36;101626.41;;;31.71;46.02
19553;BME280;9420;50.876;7.012;2023-05-23T12:17:10;101625.78;;;30.44;46.88
19553;BME280;9420;50.876;7.012;2023-05-23T12:19:38;101627.47;;;30.72;46.64
19553;BME280;9420;50.876;7.012;2023-05-23T12:22:07;101618.38;;;32.62;44.28
19553;BME280;9420;50.876;7.012;2023-05-23T12:24:34;101622.16;;;31.51;45.81
19553;BME280;9420;50.876;7.012;2023-05-23T12:27:02;101613.63;;;31.97;44.58
19553;BME280;9420;50.876;7.012;2023-05-23T12:29:32;101621.09;;;31.44;45.30
19553;BME280;9420;50.876;7.012;2023-05-23T12:32:02;101619.25;;;30.37;46.68
19553;BME280;9420;50.876;7.012;2023-05-23T12:34:29;101627.03;;;30.13;47.23
19553;BME280;9420;50.876;7.012;2023-05-23T12:36:57;101617.97;;;30.58;47.56
19553;BME280;9420;50.876;7.012;2023-05-23T12:39:27;101624.06;;;29.31;48.33
19553;BME280;9420;50.876;7.012;2023-05-23T12:41:54;101620.00;;;31.01;46.74
19553;BME280;9420;50.876;7.012;2023-05-23T12:44:28;101623.72;;;31.35;45.12
19553;BME280;9420;50.876;7.012;2023-05-23T12:46:56;101626.25;;;30.84;45.16
19553;BME280;9420;50.876;7.012;2023-05-23T12:49:23;101623.41;;;31.03;44.86
19553;BME280;9420;50.876;7.012;2023-05-23T12:51:50;101616.94;;;31.83;43.92
19553;BME280;9420;50.876;7.012;2023-05-23T12:54:17;101633.56;;;31.36;44.59
19553;BME280;9420;50.876;7.012;2023-05-23T12:56:46;101630.97;;;30.37;44.34
19553;BME280;9420;50.876;7.012;2023-05-23T12:59:13;101640.88;;;29.83;45.95
19553;BME280;9420;50.876;7.012;2023-05-23T13:01:40;101623.38;;;32.41;43.99
19553;BME280;9420;50.876;7.012;2023-05-23T13:04:07;101638.13;;;30.02;46.67
19553;BME280;9420;50.876;7.012;2023-05-23T13:06:34;101633.91;;;30.98;45.95
19553;BME280;9420;50.876;7.012;2023-05-23T13:09:01;101632.06;;;32.03;43.69
19553;BME280;9420;50.876;7.012;2023-05-23T13:11:28;101621.94;;;33.37;40.01